sensor_id;sensor_type;location;lat;lon;timestamp;P1;durP1;ratioP1;P2;durP2;ratioP2
6394;SDS011;3230;42.588;23.358;2023-09-07T00:01:53;15.10;;;9.97;;
6394;SDS011;3230;42.588;23.358;2023-09-07T00:04:19;14.87;;;9.87;;
6394;SDS011;3230;42.588;23.358;2023-09-07T00:06:46;14.87;;;10.53;;
6394;SDS011;3230;42.588;23.358;2023-09-07T00:09:11;14.83;;;9.07;;
6394;SDS011;3230;42.588;23.358;2023-09-07T00:11:38;13.10;;;9.53;;
6394;SDS011;3230;42.588;23.358;2023-09-07T00:14:03;16.80;;;10.70;;
6394;SDS011;3230;42.588;23.358;2023-09-07T00:16:32;17.70;;;10.70;;
6394;SDS011;3230;42.588;23.358;2023-09-07T00:19:03;19.33;;;11.90;;
6394;SDS011;3230;42.588;23.358;2023-09-07T00:21:29;17.57;;;12.20;;
6394;SDS011;3230;42.588;23.358;2023-09-07T00:23:54;19.27;;;12.30;;
6394;SDS011;3230;42.588;23.358;2023-09-07T00:26:23;17.93;;;11.70;;
6394;SDS011;3230;42.588;23.358;2023-09-07T00:28:48;25.23;;;12.77;;
6394;SDS011;3230;42.588;23.358;2023-09-07T00:31:14;17.93;;;11.73;;
6394;SDS011;3230;42.588;23.358;2023-09-07T00:33:39;19.70;;;12.07;;
6394;SDS011;3230;42.588;23.358;2023-09-07T00:36:05;19.23;;;12.47;;
6394;SDS011;3230;42.588;23.358;2023-09-07T00:38:30;18.77;;;12.53;;
6394;SDS011;3230;42.588;23.358;2023-09-07T00:40:56;24.70;;;14.93;;
6394;SDS011;3230;42.588;23.358;2023-09-07T00:43:21;20.07;;;12.67;;
6394;SDS011;3230;42.588;23.358;2023-09-07T00:45:47;19.73;;;12.60;;
6394;SDS011;3230;42.588;23.358;2023-09-07T00:48:13;25.83;;;13.03;;
6394;SDS011;3230;42.588;23.358;2023-09-07T00:50:40;22.90;;;15.40;;
6394;SDS011;3230;42.588;23.358;2023-09-07T00:53:06;23.50;;;15.17;;
6394;SDS011;3230;42.588;23.358;2023-09-07T00:55:32;23.23;;;15.07;;
6394;SDS011;3230;42.588;23.358;2023-09-07T00:58:00;23.23;;;15.30;;
6394;SDS011;3230;42.588;23.358;2023-09-07T01:00:26;25.80;;;16.50;;
6394;SDS011;3230;42.588;23.358;2023-09-07T01:02:51;23.80;;;15.37;;
6394;SDS011;3230;42.588;23.358;2023-09-07T01:05:17;23.70;;;15.10;;
6394;SDS011;3230;42.588;23.358;2023-09-07T01:07:45;24.73;;;16.27;;
6394;SDS011;3230;42.588;23.358;2023-09-07T01:10:17;30.93;;;17.77;;
6394;SDS011;3230;42.588;23.358;2023-09-07T01:12:43;32.70;;;17.67;;
6394;SDS011;3230;42.588;23.358;2023-09-07T01:15:09;31.53;;;18.43;;
6394;SDS011;3230;42.588;23.358;2023-09-07T01:17:35;28.87;;;17.43;;
6394;SDS011;3230;42.588;23.358;2023-09-07T01:20:04;29.57;;;17.50;;
6394;SDS011;3230;42.588;23.358;2023-09-07T01:22:36;29.47;;;17.77;;
6394;SDS011;3230;42.588;23.358;2023-09-07T01:25:04;27.90;;;18.13;;
6394;SDS011;3230;42.588;23.358;2023-09-07T01:27:31;29.47;;;17.90;;
6394;SDS011;3230;42.588;23.358;2023-09-07T01:29:58;27.90;;;17.80;;
6394;SDS011;3230;42.588;23.358;2023-09-07T01:32:24;24.87;;;16.40;;
6394;SDS011;3230;42.588;23.358;2023-09-07T01:34:52;27.40;;;16.63;;
6394;SDS011;3230;42.588;23.358;2023-09-07T01:37:21;25.07;;;15.70;;
6394;SDS011;3230;42.588;23.358;2023-09-07T01:39:47;27.73;;;16.40;;
6394;SDS011;3230;42.588;23.358;2023-09-07T01:42:14;25.13;;;15.53;;
6394;SDS011;3230;42.588;23.358;2023-09-07T01:44:39;27.03;;;15.40;;
6394;SDS011;3230;42.588;23.358;2023-09-07T01:47:05;27.00;;;17.07;;
6394;SDS011;3230;42.588;23.358;2023-09-07T01:49:30;24.93;;;16.20;;
6394;SDS011;3230;42.588;23.358;2023-09-07T01:51:55;23.17;;;15.40;;
6394;SDS011;3230;42.588;23.358;2023-09-07T01:54:21;26.20;;;16.27;;
6394;SDS011;3230;42.588;23.358;2023-09-07T01:56:47;24.00;;;15.60;;
6394;SDS011;3230;42.588;23.358;2023-09-07T01:59:12;22.57;;;14.50;;
6394;SDS011;3230;42.588;23.358;2023-09-07T02:01:37;30.37;;;15.83;;
6394;SDS011;3230;42.588;23.358;2023-09-07T02:04:04;25.87;;;15.07;;
6394;SDS011;3230;42.588;23.358;2023-09-07T02:06:29;24.50;;;15.80;;
6394;SDS011;3230;42.588;23.358;2023-09-07T02:08:55;27.30;;;15.10;;
6394;SDS011;3230;42.588;23.358;2023-09-07T02:11:20;23.67;;;15.70;;
6394;SDS011;3230;42.588;23.358;2023-09-07T02:13:46;25.77;;;16.53;;
6394;SDS011;3230;42.588;23.358;2023-09-07T02:16:13;23.60;;;14.73;;
6394;SDS011;3230;42.588;23.358;2023-09-07T02:18:38;26.00;;;15.47;;
6394;SDS011;3230;42.588;23.358;2023-09-07T02:21:08;23.30;;;14.97;;
6394;SDS011;3230;42.588;23.358;2023-09-07T02:23:34;22.50;;;14.60;;
6394;SDS011;3230;42.588;23.358;2023-09-07T02:26:02;23.77;;;14.97;;
6394;SDS011;3230;42.588;23.358;2023-09-07T02:28:28;23.33;;;15.50;;
6394;SDS011;3230;42.588;23.358;2023-09-07T02:30:53;26.20;;;13.50;;
6394;SDS011;3230;42.588;23.358;2023-09-07T02:33:19;19.93;;;13.10;;
6394;SDS011;3230;42.588;23.358;2023-09-07T02:35:44;15.53;;;10.83;;
6394;SDS011;3230;42.588;23.358;2023-09-07T02:38:10;15.30;;;10.27;;
6394;SDS011;3230;42.588;23.358;2023-09-07T02:40:41;19.77;;;10.87;;
6394;SDS011;3230;42.588;23.358;2023-09-07T02:43:07;17.97;;;12.10;;
6394;SDS011;3230;42.588;23.358;2023-09-07T02:45:33;18.10;;;11.77;;
6394;SDS011;3230;42.588;23.358;2023-09-07T02:47:59;20.87;;;12.47;;
6394;SDS011;3230;42.588;23.358;2023-09-07T02:50:24;17.40;;;12.23;;
6394;SDS011;3230;42.588;23.358;2023-09-07T02:52:50;18.60;;;11.97;;
6394;SDS011;3230;42.588;23.358;2023-09-07T02:55:15;18.30;;;11.97;;
6394;SDS011;3230;42.588;23.358;2023-09-07T02:57:41;20.23;;;13.23;;
6394;SDS011;3230;42.588;23.358;2023-09-07T03:00:07;21.20;;;12.83;;
6394;SDS011;3230;42.588;23.358;2023-09-07T03:02:34;19.07;;;12.37;;
6394;SDS011;3230;42.588;23.358;2023-09-07T03:05:00;18.40;;;11.87;;
6394;SDS011;3230;42.588;23.358;2023-09-07T03:07:26;19.43;;;12.40;;
6394;SDS011;3230;42.588;23.358;2023-09-07T03:09:54;20.27;;;11.90;;
6394;SDS011;3230;42.588;23.358;2023-09-07T03:12:19;18.33;;;12.13;;
6394;SDS011;3230;42.588;23.358;2023-09-07T03:14:45;18.23;;;10.97;;
6394;SDS011;3230;42.588;23.358;2023-09-07T03:17:10;18.63;;;11.53;;
6394;SDS011;3230;42.588;23.358;2023-09-07T03:19:36;18.07;;;11.80;;
6394;SDS011;3230;42.588;23.358;2023-09-07T03:22:02;18.27;;;11.10;;
6394;SDS011;3230;42.588;23.358;2023-09-07T03:24:28;18.00;;;10.50;;
6394;SDS011;3230;42.588;23.358;2023-09-07T03:26:54;17.97;;;10.80;;
6394;SDS011;3230;42.588;23.358;2023-09-07T03:29:19;17.40;;;10.33;;
6394;SDS011;3230;42.588;23.358;2023-09-07T03:31:45;18.83;;;12.10;;
6394;SDS011;3230;42.588;23.358;2023-09-07T03:34:10;16.73;;;11.40;;
6394;SDS011;3230;42.588;23.358;2023-09-07T03:36:36;18.20;;;11.07;;
6394;SDS011;3230;42.588;23.358;2023-09-07T03:39:01;19.43;;;12.80;;
6394;SDS011;3230;42.588;23.358;2023-09-07T03:41:27;18.20;;;11.83;;
6394;SDS011;3230;42.588;23.358;2023-09-07T03:43:56;23.17;;;12.47;;
6394;SDS011;3230;42.588;23.358;2023-09-07T03:46:21;21.67;;;12.23;;
6394;SDS011;3230;42.588;23.358;2023-09-07T03:48:47;20.57;;;10.30;;
6394;SDS011;3230;42.588;23.358;2023-09-07T03:51:12;15.50;;;10.40;;
6394;SDS011;3230;42.588;23.358;2023-09-07T03:53:38;18.57;;;10.47;;
6394;SDS011;3230;42.588;23.358;2023-09-07T03:56:03;16.70;;;11.07;;
6394;SDS011;3230;42.588;23.358;2023-09-07T03:58:29;15.57;;;10.40;;
6394;SDS011;3230;42.588;23.358;2023-09-07T04:00:55;14.97;;;10.60;;
6394;SDS011;3230;42.588;23.358;2023-09-07T04:03:23;16.47;;;9.73;;
6394;SDS011;3230;42.588;23.358;2023-09-07T04:05:50;15.70;;;9.20;;
6394;SDS011;3230;42.588;23.358;2023-09-07T04:08:15;13.87;;;9.73;;
6394;SDS011;3230;42.588;23.358;2023-09-07T04:10:41;17.17;;;10.07;;
6394;SDS011;3230;42.588;23.358;2023-09-07T04:13:06;15.40;;;10.03;;
6394;SDS011;3230;42.588;23.358;2023-09-07T04:15:41;23.80;;;10.47;;
6394;SDS011;3230;42.588;23.358;2023-09-07T04:18:09;17.10;;;11.17;;
6394;SDS011;3230;42.588;23.358;2023-09-07T04:20:42;15.70;;;10.60;;
6394;SDS011;3230;42.588;23.358;2023-09-07T04:23:08;15.20;;;11.00;;
6394;SDS011;3230;42.588;23.358;2023-09-07T04:25:33;15.70;;;10.40;;
6394;SDS011;3230;42.588;23.358;2023-09-07T04:27:59;19.07;;;10.77;;
6394;SDS011;3230;42.588;23.358;2023-09-07T04:30:25;19.47;;;11.10;;
6394;SDS011;3230;42.588;23.358;2023-09-07T04:32:50;21.73;;;11.10;;
6394;SDS011;3230;42.588;23.358;2023-09-07T04:35:16;15.37;;;10.83;;
6394;SDS011;3230;42.588;23.358;2023-09-07T04:37:42;18.50;;;11.40;;
6394;SDS011;3230;42.588;23.358;2023-09-07T04:40:08;14.97;;;9.90;;
6394;SDS011;3230;42.588;23.358;2023-09-07T04:42:34;15.10;;;10.50;;
6394;SDS011;3230;42.588;23.358;2023-09-07T04:45:00;16.77;;;8.77;;
6394;SDS011;3230;42.588;23.358;2023-09-07T04:47:25;15.67;;;9.90;;
6394;SDS011;3230;42.588;23.358;2023-09-07T04:49:51;22.00;;;10.67;;
6394;SDS011;3230;42.588;23.358;2023-09-07T04:52:16;15.43;;;9.93;;
6394;SDS011;3230;42.588;23.358;2023-09-07T04:54:42;13.77;;;9.53;;
6394;SDS011;3230;42.588;23.358;2023-09-07T04:57:08;15.13;;;9.50;;
6394;SDS011;3230;42.588;23.358;2023-09-07T04:59:34;12.33;;;8.50;;
6394;SDS011;3230;42.588;23.358;2023-09-07T05:01:59;13.20;;;8.80;;
6394;SDS011;3230;42.588;23.358;2023-09-07T05:04:26;12.13;;;8.13;;
6394;SDS011;3230;42.588;23.358;2023-09-07T05:06:52;10.63;;;7.70;;
6394;SDS011;3230;42.588;23.358;2023-09-07T05:09:18;10.47;;;7.20;;
6394;SDS011;3230;42.588;23.358;2023-09-07T05:11:45;15.13;;;7.53;;
6394;SDS011;3230;42.588;23.358;2023-09-07T05:14:10;11.80;;;7.17;;
6394;SDS011;3230;42.588;23.358;2023-09-07T05:16:36;10.93;;;7.30;;
6394;SDS011;3230;42.588;23.358;2023-09-07T05:19:01;10.20;;;7.00;;
6394;SDS011;3230;42.588;23.358;2023-09-07T05:21:27;10.43;;;6.90;;
6394;SDS011;3230;42.588;23.358;2023-09-07T05:23:52;7.80;;;5.93;;
6394;SDS011;3230;42.588;23.358;2023-09-07T05:26:24;11.77;;;7.30;;
6394;SDS011;3230;42.588;23.358;2023-09-07T05:28:49;8.53;;;6.20;;
6394;SDS011;3230;42.588;23.358;2023-09-07T05:31:15;10.00;;;5.87;;
6394;SDS011;3230;42.588;23.358;2023-09-07T05:33:41;10.67;;;6.50;;
6394;SDS011;3230;42.588;23.358;2023-09-07T05:36:06;7.97;;;5.83;;
6394;SDS011;3230;42.588;23.358;2023-09-07T05:38:31;11.30;;;5.67;;
6394;SDS011;3230;42.588;23.358;2023-09-07T05:40:57;12.80;;;5.97;;
6394;SDS011;3230;42.588;23.358;2023-09-07T05:43:22;8.93;;;6.13;;
6394;SDS011;3230;42.588;23.358;2023-09-07T05:45:48;9.50;;;6.77;;
6394;SDS011;3230;42.588;23.358;2023-09-07T05:48:13;12.33;;;6.53;;
6394;SDS011;3230;42.588;23.358;2023-09-07T05:50:42;9.00;;;5.70;;
6394;SDS011;3230;42.588;23.358;2023-09-07T05:53:08;10.57;;;6.07;;
6394;SDS011;3230;42.588;23.358;2023-09-07T05:55:34;8.07;;;5.33;;
6394;SDS011;3230;42.588;23.358;2023-09-07T05:57:59;9.07;;;5.60;;
6394;SDS011;3230;42.588;23.358;2023-09-07T06:00:25;7.97;;;5.40;;
6394;SDS011;3230;42.588;23.358;2023-09-07T06:02:50;7.63;;;5.13;;
6394;SDS011;3230;42.588;23.358;2023-09-07T06:05:16;8.17;;;4.80;;
6394;SDS011;3230;42.588;23.358;2023-09-07T06:07:42;7.43;;;5.40;;
6394;SDS011;3230;42.588;23.358;2023-09-07T06:10:08;7.40;;;5.20;;
6394;SDS011;3230;42.588;23.358;2023-09-07T06:12:34;13.90;;;8.90;;
6394;SDS011;3230;42.588;23.358;2023-09-07T06:15:00;9.90;;;6.10;;
6394;SDS011;3230;42.588;23.358;2023-09-07T06:17:26;122.60;;;64.03;;
6394;SDS011;3230;42.588;23.358;2023-09-07T06:19:52;54.33;;;32.10;;
6394;SDS011;3230;42.588;23.358;2023-09-07T06:22:18;34.30;;;20.20;;
6394;SDS011;3230;42.588;23.358;2023-09-07T06:24:43;51.63;;;38.07;;
6394;SDS011;3230;42.588;23.358;2023-09-07T06:27:09;28.33;;;20.67;;
6394;SDS011;3230;42.588;23.358;2023-09-07T06:29:34;23.93;;;15.60;;
6394;SDS011;3230;42.588;23.358;2023-09-07T06:32:00;15.43;;;11.07;;
6394;SDS011;3230;42.588;23.358;2023-09-07T06:34:25;8.83;;;6.50;;
6394;SDS011;3230;42.588;23.358;2023-09-07T06:36:51;9.80;;;5.80;;
6394;SDS011;3230;42.588;23.358;2023-09-07T06:39:16;6.33;;;5.23;;
6394;SDS011;3230;42.588;23.358;2023-09-07T06:41:45;7.77;;;5.73;;
6394;SDS011;3230;42.588;23.358;2023-09-07T06:44:11;8.10;;;5.50;;
6394;SDS011;3230;42.588;23.358;2023-09-07T06:46:36;8.37;;;5.30;;
6394;SDS011;3230;42.588;23.358;2023-09-07T06:49:02;6.97;;;5.70;;
6394;SDS011;3230;42.588;23.358;2023-09-07T06:51:28;8.63;;;6.60;;
6394;SDS011;3230;42.588;23.358;2023-09-07T06:53:55;7.47;;;5.10;;
6394;SDS011;3230;42.588;23.358;2023-09-07T06:56:20;6.10;;;5.33;;
6394;SDS011;3230;42.588;23.358;2023-09-07T06:58:46;6.67;;;5.07;;
6394;SDS011;3230;42.588;23.358;2023-09-07T07:01:11;8.77;;;5.33;;
6394;SDS011;3230;42.588;23.358;2023-09-07T07:03:37;9.03;;;5.73;;
6394;SDS011;3230;42.588;23.358;2023-09-07T07:06:02;7.03;;;5.37;;
6394;SDS011;3230;42.588;23.358;2023-09-07T07:08:27;8.00;;;6.10;;
6394;SDS011;3230;42.588;23.358;2023-09-07T07:10:53;9.93;;;7.93;;
6394;SDS011;3230;42.588;23.358;2023-09-07T07:13:18;11.80;;;8.50;;
6394;SDS011;3230;42.588;23.358;2023-09-07T07:15:44;8.57;;;5.90;;
6394;SDS011;3230;42.588;23.358;2023-09-07T07:18:10;12.37;;;8.07;;
6394;SDS011;3230;42.588;23.358;2023-09-07T07:20:36;12.27;;;8.07;;
6394;SDS011;3230;42.588;23.358;2023-09-07T07:23:03;15.83;;;7.20;;
6394;SDS011;3230;42.588;23.358;2023-09-07T07:25:28;9.90;;;7.17;;
6394;SDS011;3230;42.588;23.358;2023-09-07T07:27:56;8.10;;;6.10;;
6394;SDS011;3230;42.588;23.358;2023-09-07T07:30:21;10.40;;;6.60;;
6394;SDS011;3230;42.588;23.358;2023-09-07T07:32:47;11.70;;;6.53;;
6394;SDS011;3230;42.588;23.358;2023-09-07T07:35:12;15.47;;;7.63;;
6394;SDS011;3230;42.588;23.358;2023-09-07T07:37:39;9.80;;;6.93;;
6394;SDS011;3230;42.588;23.358;2023-09-07T07:40:05;9.70;;;6.57;;
6394;SDS011;3230;42.588;23.358;2023-09-07T07:42:31;12.27;;;8.50;;
6394;SDS011;3230;42.588;23.358;2023-09-07T07:44:57;8.40;;;5.90;;
6394;SDS011;3230;42.588;23.358;2023-09-07T07:47:22;8.90;;;6.23;;
6394;SDS011;3230;42.588;23.358;2023-09-07T07:49:48;11.00;;;6.17;;
6394;SDS011;3230;42.588;23.358;2023-09-07T07:52:13;12.20;;;9.57;;
6394;SDS011;3230;42.588;23.358;2023-09-07T07:54:39;9.20;;;7.00;;
6394;SDS011;3230;42.588;23.358;2023-09-07T07:57:04;10.57;;;7.53;;
6394;SDS011;3230;42.588;23.358;2023-09-07T07:59:30;17.33;;;7.20;;
6394;SDS011;3230;42.588;23.358;2023-09-07T08:01:55;8.27;;;6.03;;
6394;SDS011;3230;42.588;23.358;2023-09-07T08:04:20;9.67;;;6.30;;
6394;SDS011;3230;42.588;23.358;2023-09-07T08:06:46;8.80;;;6.10;;
6394;SDS011;3230;42.588;23.358;2023-09-07T08:09:11;14.50;;;6.73;;
6394;SDS011;3230;42.588;23.358;2023-09-07T08:11:38;7.10;;;5.80;;
6394;SDS011;3230;42.588;23.358;2023-09-07T08:14:04;6.60;;;4.73;;
6394;SDS011;3230;42.588;23.358;2023-09-07T08:16:30;7.17;;;4.93;;
6394;SDS011;3230;42.588;23.358;2023-09-07T08:18:55;6.57;;;4.87;;
6394;SDS011;3230;42.588;23.358;2023-09-07T08:21:20;9.67;;;5.13;;
6394;SDS011;3230;42.588;23.358;2023-09-07T08:23:46;5.50;;;4.60;;
6394;SDS011;3230;42.588;23.358;2023-09-07T08:26:11;6.00;;;4.37;;
6394;SDS011;3230;42.588;23.358;2023-09-07T08:28:37;13.23;;;5.20;;
6394;SDS011;3230;42.588;23.358;2023-09-07T08:31:03;6.37;;;4.07;;
6394;SDS011;3230;42.588;23.358;2023-09-07T08:33:30;5.70;;;4.13;;
6394;SDS011;3230;42.588;23.358;2023-09-07T08:36:04;6.80;;;4.37;;
6394;SDS011;3230;42.588;23.358;2023-09-07T08:38:30;8.13;;;4.80;;
6394;SDS011;3230;42.588;23.358;2023-09-07T08:40:56;8.97;;;4.20;;
6394;SDS011;3230;42.588;23.358;2023-09-07T08:43:28;5.33;;;4.17;;
6394;SDS011;3230;42.588;23.358;2023-09-07T08:46:17;8.20;;;5.13;;
6394;SDS011;3230;42.588;23.358;2023-09-07T08:48:45;8.93;;;4.73;;
6394;SDS011;3230;42.588;23.358;2023-09-07T08:51:12;10.10;;;4.67;;
6394;SDS011;3230;42.588;23.358;2023-09-07T08:53:40;6.50;;;4.00;;
6394;SDS011;3230;42.588;23.358;2023-09-07T08:56:06;7.67;;;4.40;;
6394;SDS011;3230;42.588;23.358;2023-09-07T08:58:36;7.30;;;4.63;;
6394;SDS011;3230;42.588;23.358;2023-09-07T09:01:11;6.37;;;4.10;;
6394;SDS011;3230;42.588;23.358;2023-09-07T09:03:37;7.20;;;4.37;;
6394;SDS011;3230;42.588;23.358;2023-09-07T09:06:03;8.80;;;4.67;;
6394;SDS011;3230;42.588;23.358;2023-09-07T09:08:40;6.10;;;4.20;;
6394;SDS011;3230;42.588;23.358;2023-09-07T09:11:17;8.00;;;5.53;;
6394;SDS011;3230;42.588;23.358;2023-09-07T09:13:44;6.57;;;4.50;;
6394;SDS011;3230;42.588;23.358;2023-09-07T09:16:10;12.90;;;8.83;;
6394;SDS011;3230;42.588;23.358;2023-09-07T09:18:36;9.73;;;5.90;;
6394;SDS011;3230;42.588;23.358;2023-09-07T09:21:02;15.40;;;8.53;;
6394;SDS011;3230;42.588;23.358;2023-09-07T09:25:57;8.40;;;6.10;;
6394;SDS011;3230;42.588;23.358;2023-09-07T09:28:22;8.50;;;5.70;;
6394;SDS011;3230;42.588;23.358;2023-09-07T09:30:48;8.37;;;4.57;;
6394;SDS011;3230;42.588;23.358;2023-09-07T09:33:14;8.40;;;4.90;;
6394;SDS011;3230;42.588;23.358;2023-09-07T09:35:39;6.90;;;5.10;;
6394;SDS011;3230;42.588;23.358;2023-09-07T09:38:14;7.30;;;5.60;;
6394;SDS011;3230;42.588;23.358;2023-09-07T09:40:40;12.23;;;6.53;;
6394;SDS011;3230;42.588;23.358;2023-09-07T09:43:05;6.77;;;4.50;;
6394;SDS011;3230;42.588;23.358;2023-09-07T09:45:32;8.00;;;4.67;;
6394;SDS011;3230;42.588;23.358;2023-09-07T09:48:00;12.13;;;6.03;;
6394;SDS011;3230;42.588;23.358;2023-09-07T09:50:26;8.70;;;3.73;;
6394;SDS011;3230;42.588;23.358;2023-09-07T09:52:53;20.27;;;8.67;;
6394;SDS011;3230;42.588;23.358;2023-09-07T09:55:18;9.90;;;6.70;;
6394;SDS011;3230;42.588;23.358;2023-09-07T09:57:44;13.63;;;6.03;;
6394;SDS011;3230;42.588;23.358;2023-09-07T10:00:10;8.20;;;5.30;;
6394;SDS011;3230;42.588;23.358;2023-09-07T10:02:54;8.10;;;4.43;;
6394;SDS011;3230;42.588;23.358;2023-09-07T10:05:25;6.23;;;4.57;;
6394;SDS011;3230;42.588;23.358;2023-09-07T10:07:51;9.83;;;4.47;;
6394;SDS011;3230;42.588;23.358;2023-09-07T10:10:18;7.47;;;5.07;;
6394;SDS011;3230;42.588;23.358;2023-09-07T10:12:45;8.07;;;5.97;;
6394;SDS011;3230;42.588;23.358;2023-09-07T10:15:25;12.40;;;6.57;;
6394;SDS011;3230;42.588;23.358;2023-09-07T10:18:59;9.60;;;5.77;;
6394;SDS011;3230;42.588;23.358;2023-09-07T10:21:31;8.10;;;5.17;;
6394;SDS011;3230;42.588;23.358;2023-09-07T10:24:05;8.80;;;5.77;;
6394;SDS011;3230;42.588;23.358;2023-09-07T10:26:30;6.80;;;4.40;;
6394;SDS011;3230;42.588;23.358;2023-09-07T10:28:59;7.20;;;4.47;;
6394;SDS011;3230;42.588;23.358;2023-09-07T10:31:26;9.40;;;5.40;;
6394;SDS011;3230;42.588;23.358;2023-09-07T10:33:52;6.33;;;4.40;;
6394;SDS011;3230;42.588;23.358;2023-09-07T10:36:23;6.07;;;4.00;;
6394;SDS011;3230;42.588;23.358;2023-09-07T10:38:53;13.33;;;8.20;;
6394;SDS011;3230;42.588;23.358;2023-09-07T10:41:20;5.80;;;4.20;;
6394;SDS011;3230;42.588;23.358;2023-09-07T10:43:47;6.40;;;4.13;;
6394;SDS011;3230;42.588;23.358;2023-09-07T10:46:14;6.73;;;4.10;;
6394;SDS011;3230;42.588;23.358;2023-09-07T10:48:39;13.00;;;4.80;;
6394;SDS011;3230;42.588;23.358;2023-09-07T10:51:05;10.60;;;8.17;;
6394;SDS011;3230;42.588;23.358;2023-09-07T10:53:31;12.17;;;8.60;;
6394;SDS011;3230;42.588;23.358;2023-09-07T10:56:04;6.97;;;4.27;;
6394;SDS011;3230;42.588;23.358;2023-09-07T10:58:31;8.50;;;5.67;;
6394;SDS011;3230;42.588;23.358;2023-09-07T11:00:58;8.90;;;4.30;;
6394;SDS011;3230;42.588;23.358;2023-09-07T11:03:24;7.17;;;4.20;;
6394;SDS011;3230;42.588;23.358;2023-09-07T11:05:54;8.43;;;5.13;;
6394;SDS011;3230;42.588;23.358;2023-09-07T11:08:22;5.93;;;4.80;;
6394;SDS011;3230;42.588;23.358;2023-09-07T11:10:49;6.30;;;4.50;;
6394;SDS011;3230;42.588;23.358;2023-09-07T11:13:16;8.03;;;4.73;;
6394;SDS011;3230;42.588;23.358;2023-09-07T11:15:41;7.37;;;5.33;;
6394;SDS011;3230;42.588;23.358;2023-09-07T11:18:07;8.27;;;5.20;;
6394;SDS011;3230;42.588;23.358;2023-09-07T11:20:37;8.30;;;5.40;;
6394;SDS011;3230;42.588;23.358;2023-09-07T11:23:05;75.00;;;53.37;;
6394;SDS011;3230;42.588;23.358;2023-09-07T11:25:38;6.10;;;4.80;;
6394;SDS011;3230;42.588;23.358;2023-09-07T11:28:07;9.03;;;5.50;;
6394;SDS011;3230;42.588;23.358;2023-09-07T11:30:34;13.10;;;6.67;;
6394;SDS011;3230;42.588;23.358;2023-09-07T11:33:06;7.50;;;5.00;;
6394;SDS011;3230;42.588;23.358;2023-09-07T11:35:35;7.17;;;4.90;;
6394;SDS011;3230;42.588;23.358;2023-09-07T11:38:02;8.40;;;5.20;;
6394;SDS011;3230;42.588;23.358;2023-09-07T11:40:32;7.20;;;5.03;;
6394;SDS011;3230;42.588;23.358;2023-09-07T11:43:35;6.50;;;4.80;;
6394;SDS011;3230;42.588;23.358;2023-09-07T11:46:07;6.33;;;4.30;;
6394;SDS011;3230;42.588;23.358;2023-09-07T11:48:33;6.47;;;4.40;;
6394;SDS011;3230;42.588;23.358;2023-09-07T11:50:59;5.33;;;3.60;;
6394;SDS011;3230;42.588;23.358;2023-09-07T11:53:25;8.97;;;4.37;;
6394;SDS011;3230;42.588;23.358;2023-09-07T11:55:51;5.10;;;4.07;;
6394;SDS011;3230;42.588;23.358;2023-09-07T11:58:16;5.43;;;4.33;;
6394;SDS011;3230;42.588;23.358;2023-09-07T12:00:41;5.30;;;4.33;;
6394;SDS011;3230;42.588;23.358;2023-09-07T12:03:08;4.63;;;4.00;;
6394;SDS011;3230;42.588;23.358;2023-09-07T12:05:33;6.93;;;4.10;;
6394;SDS011;3230;42.588;23.358;2023-09-07T12:07:59;6.33;;;4.47;;
6394;SDS011;3230;42.588;23.358;2023-09-07T12:10:25;6.23;;;4.10;;
6394;SDS011;3230;42.588;23.358;2023-09-07T12:12:50;7.80;;;4.60;;
6394;SDS011;3230;42.588;23.358;2023-09-07T12:15:16;6.50;;;4.67;;
6394;SDS011;3230;42.588;23.358;2023-09-07T12:17:41;6.27;;;4.30;;
6394;SDS011;3230;42.588;23.358;2023-09-07T12:20:07;5.93;;;4.10;;
6394;SDS011;3230;42.588;23.358;2023-09-07T12:22:38;5.60;;;3.83;;
6394;SDS011;3230;42.588;23.358;2023-09-07T12:25:04;5.17;;;3.70;;
6394;SDS011;3230;42.588;23.358;2023-09-07T12:27:33;5.43;;;3.67;;
6394;SDS011;3230;42.588;23.358;2023-09-07T12:29:59;7.83;;;4.03;;
6394;SDS011;3230;42.588;23.358;2023-09-07T12:32:25;7.20;;;4.03;;
6394;SDS011;3230;42.588;23.358;2023-09-07T12:34:50;5.63;;;3.60;;
6394;SDS011;3230;42.588;23.358;2023-09-07T12:37:18;8.80;;;3.80;;
6394;SDS011;3230;42.588;23.358;2023-09-07T12:39:44;6.40;;;4.20;;
6394;SDS011;3230;42.588;23.358;2023-09-07T12:42:10;5.87;;;4.03;;
6394;SDS011;3230;42.588;23.358;2023-09-07T12:44:35;7.93;;;4.33;;
6394;SDS011;3230;42.588;23.358;2023-09-07T12:47:00;6.77;;;4.40;;
6394;SDS011;3230;42.588;23.358;2023-09-07T12:49:26;7.07;;;4.00;;
6394;SDS011;3230;42.588;23.358;2023-09-07T12:51:51;6.60;;;4.20;;
6394;SDS011;3230;42.588;23.358;2023-09-07T12:54:17;6.00;;;4.17;;
6394;SDS011;3230;42.588;23.358;2023-09-07T12:56:42;7.17;;;3.90;;
6394;SDS011;3230;42.588;23.358;2023-09-07T12:59:08;8.07;;;4.10;;
6394;SDS011;3230;42.588;23.358;2023-09-07T13:01:33;7.07;;;3.90;;
6394;SDS011;3230;42.588;23.358;2023-09-07T13:03:59;10.23;;;4.87;;
6394;SDS011;3230;42.588;23.358;2023-09-07T13:06:25;7.43;;;4.63;;
6394;SDS011;3230;42.588;23.358;2023-09-07T13:08:51;5.63;;;4.27;;
6394;SDS011;3230;42.588;23.358;2023-09-07T13:11:16;8.57;;;4.10;;
6394;SDS011;3230;42.588;23.358;2023-09-07T13:13:41;6.33;;;4.00;;
6394;SDS011;3230;42.588;23.358;2023-09-07T13:16:07;10.67;;;4.47;;
6394;SDS011;3230;42.588;23.358;2023-09-07T13:18:32;5.00;;;3.97;;
6394;SDS011;3230;42.588;23.358;2023-09-07T13:20:58;6.20;;;3.70;;
6394;SDS011;3230;42.588;23.358;2023-09-07T13:23:27;7.30;;;4.40;;
6394;SDS011;3230;42.588;23.358;2023-09-07T13:25:57;6.80;;;4.13;;
6394;SDS011;3230;42.588;23.358;2023-09-07T13:28:22;4.70;;;4.20;;
6394;SDS011;3230;42.588;23.358;2023-09-07T13:30:49;5.30;;;3.33;;
6394;SDS011;3230;42.588;23.358;2023-09-07T13:33:15;5.60;;;3.93;;
6394;SDS011;3230;42.588;23.358;2023-09-07T13:35:41;9.43;;;4.83;;
6394;SDS011;3230;42.588;23.358;2023-09-07T13:38:07;6.80;;;3.93;;
6394;SDS011;3230;42.588;23.358;2023-09-07T13:40:32;7.93;;;3.93;;
6394;SDS011;3230;42.588;23.358;2023-09-07T13:42:58;7.83;;;4.37;;
6394;SDS011;3230;42.588;23.358;2023-09-07T13:45:23;6.43;;;4.30;;
6394;SDS011;3230;42.588;23.358;2023-09-07T13:47:49;11.20;;;4.27;;
6394;SDS011;3230;42.588;23.358;2023-09-07T13:50:14;13.77;;;3.97;;
6394;SDS011;3230;42.588;23.358;2023-09-07T13:52:40;6.20;;;4.27;;
6394;SDS011;3230;42.588;23.358;2023-09-07T13:55:05;7.03;;;3.83;;
6394;SDS011;3230;42.588;23.358;2023-09-07T13:57:32;8.03;;;4.30;;
6394;SDS011;3230;42.588;23.358;2023-09-07T13:59:58;7.13;;;4.60;;
6394;SDS011;3230;42.588;23.358;2023-09-07T14:02:24;6.10;;;4.07;;
6394;SDS011;3230;42.588;23.358;2023-09-07T14:04:49;6.50;;;3.90;;
6394;SDS011;3230;42.588;23.358;2023-09-07T14:07:15;7.10;;;4.03;;
6394;SDS011;3230;42.588;23.358;2023-09-07T14:09:41;11.47;;;4.23;;
6394;SDS011;3230;42.588;23.358;2023-09-07T14:12:06;5.17;;;4.00;;
6394;SDS011;3230;42.588;23.358;2023-09-07T14:14:32;5.87;;;3.80;;
6394;SDS011;3230;42.588;23.358;2023-09-07T14:16:57;5.53;;;3.73;;
6394;SDS011;3230;42.588;23.358;2023-09-07T14:19:25;6.80;;;4.10;;
6394;SDS011;3230;42.588;23.358;2023-09-07T14:21:52;5.37;;;3.57;;
6394;SDS011;3230;42.588;23.358;2023-09-07T14:24:18;6.80;;;3.97;;
6394;SDS011;3230;42.588;23.358;2023-09-07T14:26:43;8.70;;;4.30;;
6394;SDS011;3230;42.588;23.358;2023-09-07T14:29:09;6.90;;;4.70;;
6394;SDS011;3230;42.588;23.358;2023-09-07T14:31:34;7.20;;;4.30;;
6394;SDS011;3230;42.588;23.358;2023-09-07T14:33:59;6.77;;;4.30;;
6394;SDS011;3230;42.588;23.358;2023-09-07T14:36:25;7.13;;;4.37;;
6394;SDS011;3230;42.588;23.358;2023-09-07T14:38:50;7.33;;;4.07;;
6394;SDS011;3230;42.588;23.358;2023-09-07T14:41:16;6.23;;;4.00;;
6394;SDS011;3230;42.588;23.358;2023-09-07T14:43:45;8.40;;;4.90;;
6394;SDS011;3230;42.588;23.358;2023-09-07T14:46:11;6.20;;;3.40;;
6394;SDS011;3230;42.588;23.358;2023-09-07T14:48:36;5.07;;;3.70;;
6394;SDS011;3230;42.588;23.358;2023-09-07T14:51:02;10.57;;;7.70;;